sensor_id;sensor_type;location;lat;lon;timestamp;temperature;humidity
15690;DHT22;7945;48.816;11.506;2022-08-03T00:00:55;23.30;70.00
15690;DHT22;7945;48.816;11.506;2022-08-03T00:03:23;23.30;69.50
15690;DHT22;7945;48.816;11.506;2022-08-03T00:05:50;23.30;69.30
15690;DHT22;7945;48.816;11.506;2022-08-03T00:08:17;23.30;69.50
15690;DHT22;7945;48.816;11.506;2022-08-03T00:10:44;23.30;69.40
15690;DHT22;7945;48.816;11.506;2022-08-03T00:13:11;23.20;69.50
15690;DHT22;7945;48.816;11.506;2022-08-03T00:15:39;23.20;69.40
15690;DHT22;7945;48.816;11.506;2022-08-03T00:18:06;23.20;69.60
15690;DHT22;7945;48.816;11.506;2022-08-03T00:20:35;23.10;69.80
15690;DHT22;7945;48.816;11.506;2022-08-03T00:23:03;23.00;70.00
15690;DHT22;7945;48.816;11.506;2022-08-03T00:25:30;22.90;70.30
15690;DHT22;7945;48.816;11.506;2022-08-03T00:27:57;22.90;70.50
15690;DHT22;7945;48.816;11.506;2022-08-03T00:30:25;22.80;70.60
15690;DHT22;7945;48.816;11.506;2022-08-03T00:32:53;22.80;70.70
15690;DHT22;7945;48.816;11.506;2022-08-03T00:35:20;22.80;70.70
15690;DHT22;7945;48.816;11.506;2022-08-03T00:37:49;22.80;70.80
15690;DHT22;7945;48.816;11.506;2022-08-03T00:40:18;22.80;70.80
15690;DHT22;7945;48.816;11.506;2022-08-03T00:42:49;22.80;70.80
15690;DHT22;7945;48.816;11.506;2022-08-03T00:45:17;22.70;70.80
15690;DHT22;7945;48.816;11.506;2022-08-03T00:47:44;22.60;71.20
15690;DHT22;7945;48.816;11.506;2022-08-03T00:50:12;22.50;71.50
15690;DHT22;7945;48.816;11.506;2022-08-03T00:52:39;22.40;71.40
15690;DHT22;7945;48.816;11.506;2022-08-03T00:55:08;22.40;71.50
15690;DHT22;7945;48.816;11.506;2022-08-03T00:57:36;22.30;72.00
15690;DHT22;7945;48.816;11.506;2022-08-03T01:00:05;22.20;72.20
15690;DHT22;7945;48.816;11.506;2022-08-03T01:02:33;22.10;72.50
15690;DHT22;7945;48.816;11.506;2022-08-03T01:05:00;22.10;72.60
15690;DHT22;7945;48.816;11.506;2022-08-03T01:07:40;22.10;72.50
15690;DHT22;7945;48.816;11.506;2022-08-03T01:10:16;22.20;72.40
15690;DHT22;7945;48.816;11.506;2022-08-03T01:12:51;22.20;72.40
15690;DHT22;7945;48.816;11.506;2022-08-03T01:15:25;22.10;72.90
15690;DHT22;7945;48.816;11.506;2022-08-03T01:17:56;22.10;72.90
15690;DHT22;7945;48.816;11.506;2022-08-03T01:20:28;22.10;72.70
15690;DHT22;7945;48.816;11.506;2022-08-03T01:25:58;22.10;73.20
15690;DHT22;7945;48.816;11.506;2022-08-03T01:28:43;22.00;73.40
15690;DHT22;7945;48.816;11.506;2022-08-03T01:31:19;22.00;73.70
15690;DHT22;7945;48.816;11.506;2022-08-03T01:33:51;22.00;73.80
15690;DHT22;7945;48.816;11.506;2022-08-03T01:36:23;22.00;73.80
15690;DHT22;7945;48.816;11.506;2022-08-03T01:38:53;22.00;73.80
15690;DHT22;7945;48.816;11.506;2022-08-03T01:41:24;22.00;74.00
15690;DHT22;7945;48.816;11.506;2022-08-03T01:43:57;21.90;74.00
15690;DHT22;7945;48.816;11.506;2022-08-03T01:46:27;21.90;74.20
15690;DHT22;7945;48.816;11.506;2022-08-03T01:48:56;21.90;74.10
15690;DHT22;7945;48.816;11.506;2022-08-03T01:51:24;21.90;74.10
15690;DHT22;7945;48.816;11.506;2022-08-03T01:53:52;21.90;74.00
15690;DHT22;7945;48.816;11.506;2022-08-03T01:56:22;21.90;74.10
15690;DHT22;7945;48.816;11.506;2022-08-03T01:58:51;21.90;74.10
15690;DHT22;7945;48.816;11.506;2022-08-03T02:01:20;21.90;73.90
15690;DHT22;7945;48.816;11.506;2022-08-03T02:03:50;21.80;74.00
15690;DHT22;7945;48.816;11.506;2022-08-03T02:06:19;21.70;74.50
15690;DHT22;7945;48.816;11.506;2022-08-03T02:08:48;21.50;75.20
15690;DHT22;7945;48.816;11.506;2022-08-03T02:11:17;21.30;75.80
15690;DHT22;7945;48.816;11.506;2022-08-03T02:13:45;21.20;76.30
15690;DHT22;7945;48.816;11.506;2022-08-03T02:16:13;21.10;76.60
15690;DHT22;7945;48.816;11.506;2022-08-03T02:18:41;21.10;76.60
15690;DHT22;7945;48.816;11.506;2022-08-03T02:21:10;21.10;76.70
15690;DHT22;7945;48.816;11.506;2022-08-03T02:23:39;21.10;76.80
15690;DHT22;7945;48.816;11.506;2022-08-03T02:26:11;21.10;76.70
15690;DHT22;7945;48.816;11.506;2022-08-03T02:28:42;21.10;77.40
15690;DHT22;7945;48.816;11.506;2022-08-03T02:31:13;21.20;76.80
15690;DHT22;7945;48.816;11.506;2022-08-03T02:33:43;21.20;76.80
15690;DHT22;7945;48.816;11.506;2022-08-03T02:36:13;21.20;76.90
15690;DHT22;7945;48.816;11.506;2022-08-03T02:38:43;21.20;77.00
15690;DHT22;7945;48.816;11.506;2022-08-03T02:41:16;21.20;77.10
15690;DHT22;7945;48.816;11.506;2022-08-03T02:43:46;21.20;77.20
15690;DHT22;7945;48.816;11.506;2022-08-03T02:46:17;21.20;77.30
15690;DHT22;7945;48.816;11.506;2022-08-03T02:48:46;21.20;77.50
15690;DHT22;7945;48.816;11.506;2022-08-03T02:51:16;21.20;77.50
15690;DHT22;7945;48.816;11.506;2022-08-03T02:53:45;21.20;77.30
15690;DHT22;7945;48.816;11.506;2022-08-03T02:56:13;21.20;77.20
15690;DHT22;7945;48.816;11.506;2022-08-03T02:58:42;21.20;77.60
15690;DHT22;7945;48.816;11.506;2022-08-03T03:01:11;21.10;77.90
15690;DHT22;7945;48.816;11.506;2022-08-03T03:03:40;21.10;78.00
15690;DHT22;7945;48.816;11.506;2022-08-03T03:06:08;21.10;77.90
15690;DHT22;7945;48.816;11.506;2022-08-03T03:08:38;21.10;77.90
15690;DHT22;7945;48.816;11.506;2022-08-03T03:11:07;21.10;78.50
15690;DHT22;7945;48.816;11.506;2022-08-03T03:13:34;21.10;78.70
15690;DHT22;7945;48.816;11.506;2022-08-03T03:16:03;21.00;78.30
15690;DHT22;7945;48.816;11.506;2022-08-03T03:18:32;21.00;78.70
15690;DHT22;7945;48.816;11.506;2022-08-03T03:21:02;21.00;78.80
15690;DHT22;7945;48.816;11.506;2022-08-03T03:23:30;21.00;79.00
15690;DHT22;7945;48.816;11.506;2022-08-03T03:25:59;21.00;78.80
15690;DHT22;7945;48.816;11.506;2022-08-03T03:28:27;21.00;78.80
15690;DHT22;7945;48.816;11.506;2022-08-03T03:30:54;21.00;78.90
15690;DHT22;7945;48.816;11.506;2022-08-03T03:33:22;21.00;79.20
15690;DHT22;7945;48.816;11.506;2022-08-03T03:35:49;21.00;79.30
15690;DHT22;7945;48.816;11.506;2022-08-03T03:38:17;20.90;79.40
15690;DHT22;7945;48.816;11.506;2022-08-03T03:40:45;20.90;79.80
15690;DHT22;7945;48.816;11.506;2022-08-03T03:43:13;20.90;79.80
15690;DHT22;7945;48.816;11.506;2022-08-03T03:45:41;20.90;80.00
15690;DHT22;7945;48.816;11.506;2022-08-03T03:48:08;20.80;80.40
15690;DHT22;7945;48.816;11.506;2022-08-03T03:50:36;20.80;80.60
15690;DHT22;7945;48.816;11.506;2022-08-03T03:53:08;20.70;80.90
15690;DHT22;7945;48.816;11.506;2022-08-03T03:55:36;20.70;80.90
15690;DHT22;7945;48.816;11.506;2022-08-03T03:58:03;20.70;81.00
15690;DHT22;7945;48.816;11.506;2022-08-03T04:00:31;20.70;81.00
15690;DHT22;7945;48.816;11.506;2022-08-03T04:02:59;20.70;81.10
15690;DHT22;7945;48.816;11.506;2022-08-03T04:05:26;20.70;81.20
15690;DHT22;7945;48.816;11.506;2022-08-03T04:08:13;20.70;81.60
15690;DHT22;7945;48.816;11.506;2022-08-03T04:11:12;20.70;81.90
15690;DHT22;7945;48.816;11.506;2022-08-03T04:13:43;20.70;82.00
15690;DHT22;7945;48.816;11.506;2022-08-03T04:16:17;20.70;82.10
15690;DHT22;7945;48.816;11.506;2022-08-03T04:18:46;20.70;82.30
15690;DHT22;7945;48.816;11.506;2022-08-03T04:21:17;20.70;81.90
15690;DHT22;7945;48.816;11.506;2022-08-03T04:23:47;20.70;81.90
15690;DHT22;7945;48.816;11.506;2022-08-03T04:26:19;20.70;81.90
15690;DHT22;7945;48.816;11.506;2022-08-03T04:28:47;20.70;82.00
15690;DHT22;7945;48.816;11.506;2022-08-03T04:31:17;20.70;82.10
15690;DHT22;7945;48.816;11.506;2022-08-03T04:33:47;20.70;82.10
15690;DHT22;7945;48.816;11.506;2022-08-03T04:36:18;20.80;82.40
15690;DHT22;7945;48.816;11.506;2022-08-03T04:38:54;20.80;82.40
15690;DHT22;7945;48.816;11.506;2022-08-03T04:41:24;20.80;82.40
15690;DHT22;7945;48.816;11.506;2022-08-03T04:43:55;20.80;82.30
15690;DHT22;7945;48.816;11.506;2022-08-03T04:46:27;20.90;82.30
15690;DHT22;7945;48.816;11.506;2022-08-03T04:48:55;21.00;82.10
15690;DHT22;7945;48.816;11.506;2022-08-03T04:51:24;21.00;81.90
15690;DHT22;7945;48.816;11.506;2022-08-03T04:53:52;21.10;82.00
15690;DHT22;7945;48.816;11.506;2022-08-03T04:56:19;21.20;82.10
15690;DHT22;7945;48.816;11.506;2022-08-03T04:58:46;21.30;82.30
15690;DHT22;7945;48.816;11.506;2022-08-03T05:01:15;21.40;82.40
15690;DHT22;7945;48.816;11.506;2022-08-03T05:03:44;21.70;82.00
15690;DHT22;7945;48.816;11.506;2022-08-03T05:06:11;22.70;79.60
15690;DHT22;7945;48.816;11.506;2022-08-03T05:08:39;24.10;75.80
15690;DHT22;7945;48.816;11.506;2022-08-03T05:11:06;25.50;71.80
15690;DHT22;7945;48.816;11.506;2022-08-03T05:13:33;26.90;68.40
15690;DHT22;7945;48.816;11.506;2022-08-03T05:16:01;28.00;65.70
15690;DHT22;7945;48.816;11.506;2022-08-03T05:18:28;29.00;63.60
15690;DHT22;7945;48.816;11.506;2022-08-03T05:20:56;29.90;61.50
15690;DHT22;7945;48.816;11.506;2022-08-03T05:23:23;30.80;59.90
15690;DHT22;7945;48.816;11.506;2022-08-03T05:25:50;31.50;58.80
15690;DHT22;7945;48.816;11.506;2022-08-03T05:28:17;32.10;57.90
15690;DHT22;7945;48.816;11.506;2022-08-03T05:30:44;32.60;57.50
15690;DHT22;7945;48.816;11.506;2022-08-03T05:33:11;33.20;56.80
15690;DHT22;7945;48.816;11.506;2022-08-03T05:35:38;33.60;56.10
15690;DHT22;7945;48.816;11.506;2022-08-03T05:38:07;33.90;55.80
15690;DHT22;7945;48.816;11.506;2022-08-03T05:40:34;34.20;55.30
15690;DHT22;7945;48.816;11.506;2022-08-03T05:43:01;34.30;55.10
15690;DHT22;7945;48.816;11.506;2022-08-03T05:45:28;34.50;54.90
15690;DHT22;7945;48.816;11.506;2022-08-03T05:47:55;34.50;55.00
15690;DHT22;7945;48.816;11.506;2022-08-03T05:50:22;34.50;55.80
15690;DHT22;7945;48.816;11.506;2022-08-03T05:52:49;34.20;55.50
15690;DHT22;7945;48.816;11.506;2022-08-03T05:55:17;33.80;56.10
15690;DHT22;7945;48.816;11.506;2022-08-03T05:57:45;33.20;56.40
15690;DHT22;7945;48.816;11.506;2022-08-03T06:00:13;31.70;57.90
15690;DHT22;7945;48.816;11.506;2022-08-03T06:02:40;30.30;61.40
15690;DHT22;7945;48.816;11.506;2022-08-03T06:05:08;30.00;62.40
15690;DHT22;7945;48.816;11.506;2022-08-03T06:07:35;29.80;62.80
15690;DHT22;7945;48.816;11.506;2022-08-03T06:10:03;29.50;63.50
15690;DHT22;7945;48.816;11.506;2022-08-03T06:14:38;29.20;63.70
15690;DHT22;7945;48.816;11.506;2022-08-03T06:17:05;28.80;64.90
15690;DHT22;7945;48.816;11.506;2022-08-03T06:19:32;28.40;65.50
15690;DHT22;7945;48.816;11.506;2022-08-03T06:21:59;28.10;66.60
15690;DHT22;7945;48.816;11.506;2022-08-03T06:24:26;27.70;67.40
15690;DHT22;7945;48.816;11.506;2022-08-03T06:26:53;27.50;68.10
15690;DHT22;7945;48.816;11.506;2022-08-03T06:29:20;27.30;68.80
15690;DHT22;7945;48.816;11.506;2022-08-03T06:31:49;27.20;69.40
15690;DHT22;7945;48.816;11.506;2022-08-03T06:34:16;27.00;69.90
15690;DHT22;7945;48.816;11.506;2022-08-03T06:36:43;26.90;70.20
15690;DHT22;7945;48.816;11.506;2022-08-03T06:39:13;27.00;70.50
15690;DHT22;7945;48.816;11.506;2022-08-03T06:41:40;27.00;70.50
15690;DHT22;7945;48.816;11.506;2022-08-03T06:44:07;26.80;71.00
15690;DHT22;7945;48.816;11.506;2022-08-03T06:46:34;26.70;71.30
15690;DHT22;7945;48.816;11.506;2022-08-03T06:49:02;26.50;72.00
15690;DHT22;7945;48.816;11.506;2022-08-03T06:51:29;26.30;72.70
15690;DHT22;7945;48.816;11.506;2022-08-03T06:53:56;26.20;73.00
15690;DHT22;7945;48.816;11.506;2022-08-03T06:56:22;26.10;73.20
15690;DHT22;7945;48.816;11.506;2022-08-03T06:58:49;26.00;73.30
15690;DHT22;7945;48.816;11.506;2022-08-03T07:01:16;25.90;73.40
15690;DHT22;7945;48.816;11.506;2022-08-03T07:03:43;25.90;73.50
15690;DHT22;7945;48.816;11.506;2022-08-03T07:06:11;26.00;73.60
15690;DHT22;7945;48.816;11.506;2022-08-03T07:08:38;26.10;73.40
15690;DHT22;7945;48.816;11.506;2022-08-03T07:11:05;26.10;73.50
15690;DHT22;7945;48.816;11.506;2022-08-03T07:13:33;26.10;73.70
15690;DHT22;7945;48.816;11.506;2022-08-03T07:15:59;26.20;73.60
15690;DHT22;7945;48.816;11.506;2022-08-03T07:18:26;26.20;73.30
15690;DHT22;7945;48.816;11.506;2022-08-03T07:20:53;26.30;73.00
15690;DHT22;7945;48.816;11.506;2022-08-03T07:23:21;26.30;72.00
15690;DHT22;7945;48.816;11.506;2022-08-03T07:25:49;26.30;72.20
15690;DHT22;7945;48.816;11.506;2022-08-03T07:28:16;26.40;72.20
15690;DHT22;7945;48.816;11.506;2022-08-03T07:30:43;26.50;72.10
15690;DHT22;7945;48.816;11.506;2022-08-03T07:33:10;26.50;71.80
15690;DHT22;7945;48.816;11.506;2022-08-03T07:35:37;26.50;72.00
15690;DHT22;7945;48.816;11.506;2022-08-03T07:38:04;26.60;72.30
15690;DHT22;7945;48.816;11.506;2022-08-03T07:40:32;26.50;72.30
15690;DHT22;7945;48.816;11.506;2022-08-03T07:42:59;26.60;72.40
15690;DHT22;7945;48.816;11.506;2022-08-03T07:45:28;26.60;71.90
15690;DHT22;7945;48.816;11.506;2022-08-03T07:47:55;26.60;72.00
15690;DHT22;7945;48.816;11.506;2022-08-03T07:50:23;26.60;71.50
15690;DHT22;7945;48.816;11.506;2022-08-03T07:52:50;26.70;71.00
15690;DHT22;7945;48.816;11.506;2022-08-03T07:55:19;26.80;71.50
15690;DHT22;7945;48.816;11.506;2022-08-03T07:58:02;26.80;71.50
15690;DHT22;7945;48.816;11.506;2022-08-03T08:00:29;26.90;71.10
15690;DHT22;7945;48.816;11.506;2022-08-03T08:02:56;27.00;70.60
15690;DHT22;7945;48.816;11.506;2022-08-03T08:05:23;27.00;71.00
15690;DHT22;7945;48.816;11.506;2022-08-03T08:07:51;27.00;71.10
15690;DHT22;7945;48.816;11.506;2022-08-03T08:10:18;27.00;70.90
15690;DHT22;7945;48.816;11.506;2022-08-03T08:12:48;27.10;70.80
15690;DHT22;7945;48.816;11.506;2022-08-03T08:15:16;27.10;70.90
15690;DHT22;7945;48.816;11.506;2022-08-03T08:17:45;27.20;70.20
15690;DHT22;7945;48.816;11.506;2022-08-03T08:20:16;27.30;70.40
15690;DHT22;7945;48.816;11.506;2022-08-03T08:22:44;27.30;70.40
15690;DHT22;7945;48.816;11.506;2022-08-03T08:25:11;27.30;70.40
15690;DHT22;7945;48.816;11.506;2022-08-03T08:27:43;27.40;70.50
15690;DHT22;7945;48.816;11.506;2022-08-03T08:30:14;27.40;70.70
15690;DHT22;7945;48.816;11.506;2022-08-03T08:32:41;27.50;70.00
15690;DHT22;7945;48.816;11.506;2022-08-03T08:35:09;27.50;70.20
15690;DHT22;7945;48.816;11.506;2022-08-03T08:37:36;27.60;69.30
15690;DHT22;7945;48.816;11.506;2022-08-03T08:40:04;27.60;69.00
15690;DHT22;7945;48.816;11.506;2022-08-03T08:42:32;27.70;68.60
15690;DHT22;7945;48.816;11.506;2022-08-03T08:44:59;27.60;69.10
15690;DHT22;7945;48.816;11.506;2022-08-03T08:47:31;27.60;69.10
15690;DHT22;7945;48.816;11.506;2022-08-03T08:49:58;27.60;68.60
15690;DHT22;7945;48.816;11.506;2022-08-03T08:52:27;27.60;67.80
15690;DHT22;7945;48.816;11.506;2022-08-03T08:54:55;27.70;68.30
15690;DHT22;7945;48.816;11.506;2022-08-03T08:57:28;27.80;68.40
15690;DHT22;7945;48.816;11.506;2022-08-03T08:59:55;27.90;68.40
15690;DHT22;7945;48.816;11.506;2022-08-03T09:02:23;28.00;68.10
15690;DHT22;7945;48.816;11.506;2022-08-03T09:04:52;28.10;68.10
15690;DHT22;7945;48.816;11.506;2022-08-03T09:07:20;28.10;67.60
15690;DHT22;7945;48.816;11.506;2022-08-03T09:09:47;28.10;67.40
15690;DHT22;7945;48.816;11.506;2022-08-03T09:12:17;28.10;67.60
15690;DHT22;7945;48.816;11.506;2022-08-03T09:14:45;28.20;66.80
15690;DHT22;7945;48.816;11.506;2022-08-03T09:17:12;28.20;66.90
15690;DHT22;7945;48.816;11.506;2022-08-03T09:19:39;28.20;66.50
15690;DHT22;7945;48.816;11.506;2022-08-03T09:22:10;28.30;66.40
15690;DHT22;7945;48.816;11.506;2022-08-03T09:24:38;28.30;65.00
15690;DHT22;7945;48.816;11.506;2022-08-03T09:27:19;28.30;65.40
15690;DHT22;7945;48.816;11.506;2022-08-03T09:29:47;28.40;65.40
15690;DHT22;7945;48.816;11.506;2022-08-03T09:32:18;28.40;65.30
15690;DHT22;7945;48.816;11.506;2022-08-03T09:34:47;28.60;65.80
15690;DHT22;7945;48.816;11.506;2022-08-03T09:37:18;28.80;65.50
15690;DHT22;7945;48.816;11.506;2022-08-03T09:39:47;29.00;64.60
15690;DHT22;7945;48.816;11.506;2022-08-03T09:42:16;29.10;62.20
15690;DHT22;7945;48.816;11.506;2022-08-03T09:44:45;29.20;61.80
15690;DHT22;7945;48.816;11.506;2022-08-03T09:47:14;29.20;62.30
15690;DHT22;7945;48.816;11.506;2022-08-03T09:49:41;29.40;62.30
15690;DHT22;7945;48.816;11.506;2022-08-03T09:52:13;29.60;62.40
15690;DHT22;7945;48.816;11.506;2022-08-03T09:54:42;29.80;61.80
15690;DHT22;7945;48.816;11.506;2022-08-03T09:57:20;29.90;62.20
15690;DHT22;7945;48.816;11.506;2022-08-03T09:59:49;30.00;60.50
15690;DHT22;7945;48.816;11.506;2022-08-03T10:02:24;30.00;60.30
15690;DHT22;7945;48.816;11.506;2022-08-03T10:04:53;30.10;60.60
15690;DHT22;7945;48.816;11.506;2022-08-03T10:07:21;30.30;60.20
15690;DHT22;7945;48.816;11.506;2022-08-03T10:09:55;30.30;60.80
15690;DHT22;7945;48.816;11.506;2022-08-03T10:12:23;30.40;60.90
15690;DHT22;7945;48.816;11.506;2022-08-03T10:14:51;30.40;61.30
15690;DHT22;7945;48.816;11.506;2022-08-03T10:17:18;30.60;60.10
15690;DHT22;7945;48.816;11.506;2022-08-03T10:19:45;30.80;59.60
15690;DHT22;7945;48.816;11.506;2022-08-03T10:22:14;30.90;59.30
15690;DHT22;7945;48.816;11.506;2022-08-03T10:24:48;31.00;59.30
15690;DHT22;7945;48.816;11.506;2022-08-03T10:27:18;31.00;59.10
15690;DHT22;7945;48.816;11.506;2022-08-03T10:29:51;31.00;59.00
15690;DHT22;7945;48.816;11.506;2022-08-03T10:32:22;31.00;59.30
15690;DHT22;7945;48.816;11.506;2022-08-03T10:34:55;30.80;59.50
15690;DHT22;7945;48.816;11.506;2022-08-03T10:37:26;30.80;59.70
15690;DHT22;7945;48.816;11.506;2022-08-03T10:39:54;30.90;59.50
15690;DHT22;7945;48.816;11.506;2022-08-03T10:42:25;31.00;59.60
15690;DHT22;7945;48.816;11.506;2022-08-03T10:45:04;31.10;59.20
15690;DHT22;7945;48.816;11.506;2022-08-03T10:47:33;31.30;59.30
15690;DHT22;7945;48.816;11.506;2022-08-03T10:50:01;31.30;59.00
15690;DHT22;7945;48.816;11.506;2022-08-03T10:52:29;31.40;58.60
15690;DHT22;7945;48.816;11.506;2022-08-03T10:54:56;31.60;58.70
15690;DHT22;7945;48.816;11.506;2022-08-03T10:57:50;31.80;58.60
15690;DHT22;7945;48.816;11.506;2022-08-03T11:00:19;31.80;58.00
15690;DHT22;7945;48.816;11.506;2022-08-03T11:03:07;31.90;58.20
15690;DHT22;7945;48.816;11.506;2022-08-03T11:05:39;31.90;57.70
15690;DHT22;7945;48.816;11.506;2022-08-03T11:08:27;32.00;58.50
15690;DHT22;7945;48.816;11.506;2022-08-03T11:10:56;32.10;56.90
15690;DHT22;7945;48.816;11.506;2022-08-03T11:13:27;32.10;57.10
15690;DHT22;7945;48.816;11.506;2022-08-03T11:16:00;32.10;56.50
15690;DHT22;7945;48.816;11.506;2022-08-03T11:18:27;32.20;56.30
15690;DHT22;7945;48.816;11.506;2022-08-03T11:20:55;32.30;55.00
15690;DHT22;7945;48.816;11.506;2022-08-03T11:23:43;32.30;53.80
15690;DHT22;7945;48.816;11.506;2022-08-03T11:26:15;32.40;53.80
15690;DHT22;7945;48.816;11.506;2022-08-03T11:28:46;32.40;53.80
15690;DHT22;7945;48.816;11.506;2022-08-03T11:31:45;32.50;52.80
15690;DHT22;7945;48.816;11.506;2022-08-03T11:34:14;32.50;52.20
15690;DHT22;7945;48.816;11.506;2022-08-03T11:39:53;32.70;52.30
15690;DHT22;7945;48.816;11.506;2022-08-03T11:42:43;32.60;53.30
15690;DHT22;7945;48.816;11.506;2022-08-03T11:45:13;32.70;53.40
15690;DHT22;7945;48.816;11.506;2022-08-03T11:47:41;32.70;52.50
15690;DHT22;7945;48.816;11.506;2022-08-03T11:50:09;32.80;53.40
15690;DHT22;7945;48.816;11.506;2022-08-03T11:52:39;32.80;53.20
15690;DHT22;7945;48.816;11.506;2022-08-03T11:55:17;32.90;53.10
15690;DHT22;7945;48.816;11.506;2022-08-03T11:57:45;32.90;52.40
15690;DHT22;7945;48.816;11.506;2022-08-03T12:00:25;32.90;52.10
15690;DHT22;7945;48.816;11.506;2022-08-03T12:03:03;32.70;52.70
15690;DHT22;7945;48.816;11.506;2022-08-03T12:05:42;32.70;51.60
15690;DHT22;7945;48.816;11.506;2022-08-03T12:08:11;32.70;51.20
15690;DHT22;7945;48.816;11.506;2022-08-03T12:10:39;32.80;51.20
15690;DHT22;7945;48.816;11.506;2022-08-03T12:13:07;32.90;50.60
15690;DHT22;7945;48.816;11.506;2022-08-03T12:15:36;32.90;50.90
15690;DHT22;7945;48.816;11.506;2022-08-03T12:18:12;32.90;51.70
15690;DHT22;7945;48.816;11.506;2022-08-03T12:20:40;33.00;51.00
15690;DHT22;7945;48.816;11.506;2022-08-03T12:23:07;33.00;51.70
15690;DHT22;7945;48.816;11.506;2022-08-03T12:25:36;33.00;51.60
15690;DHT22;7945;48.816;11.506;2022-08-03T12:28:15;33.10;51.30
15690;DHT22;7945;48.816;11.506;2022-08-03T12:30:46;33.20;50.80
15690;DHT22;7945;48.816;11.506;2022-08-03T12:33:19;33.20;50.70
15690;DHT22;7945;48.816;11.506;2022-08-03T12:35:48;33.20;50.60
15690;DHT22;7945;48.816;11.506;2022-08-03T12:38:19;33.20;50.10
15690;DHT22;7945;48.816;11.506;2022-08-03T12:41:05;33.20;49.70
15690;DHT22;7945;48.816;11.506;2022-08-03T12:43:33;33.20;50.40
15690;DHT22;7945;48.816;11.506;2022-08-03T12:46:12;33.30;50.20
15690;DHT22;7945;48.816;11.506;2022-08-03T12:48:59;33.40;50.00
15690;DHT22;7945;48.816;11.506;2022-08-03T12:51:26;33.60;49.60
15690;DHT22;7945;48.816;11.506;2022-08-03T12:53:55;33.60;49.70
15690;DHT22;7945;48.816;11.506;2022-08-03T12:56:23;33.60;49.90
15690;DHT22;7945;48.816;11.506;2022-08-03T12:58:50;33.60;49.50
15690;DHT22;7945;48.816;11.506;2022-08-03T13:01:19;33.60;49.00
15690;DHT22;7945;48.816;11.506;2022-08-03T13:03:50;33.60;47.80
15690;DHT22;7945;48.816;11.506;2022-08-03T13:06:18;33.50;48.00
15690;DHT22;7945;48.816;11.506;2022-08-03T13:08:46;33.40;48.50
15690;DHT22;7945;48.816;11.506;2022-08-03T13:11:21;33.40;47.90
15690;DHT22;7945;48.816;11.506;2022-08-03T13:13:49;33.40;48.00
15690;DHT22;7945;48.816;11.506;2022-08-03T13:16:16;33.40;48.60
15690;DHT22;7945;48.816;11.506;2022-08-03T13:18:44;33.40;48.30
15690;DHT22;7945;48.816;11.506;2022-08-03T13:21:13;33.40;48.50
15690;DHT22;7945;48.816;11.506;2022-08-03T13:23:40;33.50;47.30
15690;DHT22;7945;48.816;11.506;2022-08-03T13:26:08;33.60;48.00
15690;DHT22;7945;48.816;11.506;2022-08-03T13:28:36;33.60;47.80
15690;DHT22;7945;48.816;11.506;2022-08-03T13:31:04;33.60;48.00
15690;DHT22;7945;48.816;11.506;2022-08-03T13:33:32;33.60;47.60
15690;DHT22;7945;48.816;11.506;2022-08-03T13:36:01;33.60;47.30
15690;DHT22;7945;48.816;11.506;2022-08-03T13:38:28;33.60;47.50
15690;DHT22;7945;48.816;11.506;2022-08-03T13:40:56;33.70;48.20
15690;DHT22;7945;48.816;11.506;2022-08-03T13:43:23;33.80;48.00
15690;DHT22;7945;48.816;11.506;2022-08-03T13:45:51;33.90;48.10
15690;DHT22;7945;48.816;11.506;2022-08-03T13:48:18;33.90;47.30
15690;DHT22;7945;48.816;11.506;2022-08-03T13:50:45;33.90;46.30
15690;DHT22;7945;48.816;11.506;2022-08-03T13:53:14;33.80;45.70
15690;DHT22;7945;48.816;11.506;2022-08-03T13:55:41;33.70;46.50
15690;DHT22;7945;48.816;11.506;2022-08-03T13:58:08;33.70;46.50
15690;DHT22;7945;48.816;11.506;2022-08-03T14:00:37;33.80;47.30
15690;DHT22;7945;48.816;11.506;2022-08-03T14:03:05;33.90;46.30
15690;DHT22;7945;48.816;11.506;2022-08-03T14:05:33;33.90;46.20
15690;DHT22;7945;48.816;11.506;2022-08-03T14:08:00;33.80;45.90
15690;DHT22;7945;48.816;11.506;2022-08-03T14:10:30;33.80;47.10
15690;DHT22;7945;48.816;11.506;2022-08-03T14:12:57;33.80;47.10
15690;DHT22;7945;48.816;11.506;2022-08-03T14:15:25;33.80;46.40
15690;DHT22;7945;48.816;11.506;2022-08-03T14:17:53;33.80;46.20
15690;DHT22;7945;48.816;11.506;2022-08-03T14:20:21;33.70;46.30
15690;DHT22;7945;48.816;11.506;2022-08-03T14:22:47;33.70;46.10
15690;DHT22;7945;48.816;11.506;2022-08-03T14:25:15;33.70;46.10
15690;DHT22;7945;48.816;11.506;2022-08-03T14:27:44;33.60;46.20
15690;DHT22;7945;48.816;11.506;2022-08-03T14:30:11;33.60;45.20
15690;DHT22;7945;48.816;11.506;2022-08-03T14:32:39;33.60;45.70
15690;DHT22;7945;48.816;11.506;2022-08-03T14:35:07;33.60;46.00
15690;DHT22;7945;48.816;11.506;2022-08-03T14:37:34;33.60;44.80
15690;DHT22;7945;48.816;11.506;2022-08-03T14:40:01;33.60;45.00
15690;DHT22;7945;48.816;11.506;2022-08-03T14:42:29;33.60;45.00
15690;DHT22;7945;48.816;11.506;2022-08-03T14:44:57;33.60;44.90
15690;DHT22;7945;48.816;11.506;2022-08-03T14:47:24;33.40;45.00
15690;DHT22;7945;48.816;11.506;2022-08-03T14:49:51;33.40;45.20
15690;DHT22;7945;48.816;11.506;2022-08-03T14:52:18;33.40;45.20
15690;DHT22;7945;48.816;11.506;2022-08-03T14:54:45;33.50;44.80
15690;DHT22;7945;48.816;11.506;2022-08-03T14:57:12;33.50;44.60
15690;DHT22;7945;48.816;11.506;2022-08-03T14:59:39;33.60;44.80
15690;DHT22;7945;48.816;11.506;2022-08-03T15:02:07;33.50;44.70
15690;DHT22;7945;48.816;11.506;2022-08-03T15:04:34;33.60;45.70
15690;DHT22;7945;48.816;11.506;2022-08-03T15:07:02;33.60;45.40
15690;DHT22;7945;48.816;11.506;2022-08-03T15:09:29;33.70;45.40
15690;DHT22;7945;48.816;11.506;2022-08-03T15:11:56;33.70;45.10
15690;DHT22;7945;48.816;11.506;2022-08-03T15:14:23;33.60;44.90
15690;DHT22;7945;48.816;11.506;2022-08-03T15:16:51;33.50;44.90
15690;DHT22;7945;48.816;11.506;2022-08-03T15:19:19;33.50;44.90
15690;DHT22;7945;48.816;11.506;2022-08-03T15:21:46;33.40;44.80
15690;DHT22;7945;48.816;11.506;2022-08-03T15:24:13;33.50;44.80
15690;DHT22;7945;48.816;11.506;2022-08-03T15:26:40;33.40;44.40
15690;DHT22;7945;48.816;11.506;2022-08-03T15:29:07;33.40;45.10
15690;DHT22;7945;48.816;11.506;2022-08-03T15:31:35;33.50;45.10
15690;DHT22;7945;48.816;11.506;2022-08-03T15:34:02;33.60;44.40
15690;DHT22;7945;48.816;11.506;2022-08-03T15:36:31;33.70;44.90
15690;DHT22;7945;48.816;11.506;2022-08-03T15:38:58;33.70;44.30
15690;DHT22;7945;48.816;11.506;2022-08-03T15:41:25;33.80;44.60
15690;DHT22;7945;48.816;11.506;2022-08-03T15:43:53;33.80;44.30
15690;DHT22;7945;48.816;11.506;2022-08-03T15:46:20;33.70;44.20
15690;DHT22;7945;48.816;11.506;2022-08-03T15:48:47;33.60;44.80
15690;DHT22;7945;48.816;11.506;2022-08-03T15:51:14;33.60;44.70